Time;durP1;ratioP1;P1;durP2;ratioP2;P2;SDS_P1;SDS_P2;PMS_P1;PMS_P2;Temp;Humidity;BMP_temperature;BMP_pressure;BME280_temperature;BME280_humidity;BME280_pressure;Samples;Min_cycle;Max_cycle;Signal;HPM_P1;HPM_P2
2022/04/23 00:01:25;;;;;;;;;10.25;10.25;;;;;12.99;62.93;-18840.53;4973423;28;10971;-69
2022/04/23 00:03:51;;;;;;;;;14.00;12.25;;;;;12.94;63.36;-18839.03;4973577;28;10108;-69
2022/04/23 00:06:18;;;;;;;;;14.00;12.75;;;;;12.95;63.30;-18839.34;4968905;28;10328;-69
2022/04/23 00:08:44;;;;;;;;;11.75;11.25;;;;;13.00;63.32;-18840.69;4961604;28;10248;-72
2022/04/23 00:11:11;;;;;;;;;12.00;11.75;;;;;12.82;64.13;-18835.56;4966416;28;10329;-70
2022/04/23 00:13:38;;;;;;;;;12.50;12.50;;;;;12.96;64.00;-18839.47;4974586;28;10172;-69
2022/04/23 00:16:05;;;;;;;;;11.25;10.00;;;;;12.92;64.19;-18838.56;4973222;28;10021;-68
2022/04/23 00:18:32;;;;;;;;;12.00;12.00;;;;;12.78;64.38;-18834.34;4972048;28;10265;-69
2022/04/23 00:20:59;;;;;;;;;15.25;14.75;;;;;12.81;64.49;-18835.09;4972930;28;10224;-72
2022/04/23 00:23:27;;;;;;;;;18.75;16.50;;;;;12.80;64.81;-18834.81;4973687;28;10895;-70
2022/04/23 00:25:55;;;;;;;;;10.75;10.75;;;;;12.74;64.61;-18833.16;4972346;28;10130;-69
2022/04/23 00:28:21;;;;;;;;;14.00;11.25;;;;;12.62;65.22;-18829.69;4973854;28;10202;-70
2022/04/23 00:30:48;;;;;;;;;14.25;11.50;;;;;12.60;65.28;-18829.09;4974087;28;10287;-69
2022/04/23 00:33:14;;;;;;;;;12.00;11.50;;;;;12.68;65.29;-18831.34;4973632;28;10182;-69
2022/04/23 00:35:41;;;;;;;;;15.50;13.25;;;;;12.52;66.04;-18826.53;4973032;28;10061;-70
2022/04/23 00:38:08;;;;;;;;;15.50;13.00;;;;;12.60;65.85;-18828.94;4972828;28;10283;-70
2022/04/23 00:40:35;;;;;;;;;15.75;14.50;;;;;12.68;66.10;-18831.34;4968302;28;10299;-69
2022/04/23 00:43:05;;;;;;;;;14.25;12.50;;;;;12.47;66.62;-18825.16;4971951;28;10428;-71
2022/04/23 00:45:32;;;;;;;;;19.75;18.25;;;;;12.38;67.16;-18822.28;4973435;28;10272;-70
2022/04/23 00:47:59;;;;;;;;;17.50;14.75;;;;;12.46;67.24;-18824.88;4971383;28;10417;-69
2022/04/23 00:50:25;;;;;;;;;18.00;17.00;;;;;12.50;66.76;-18826.06;4973621;28;10341;-73
2022/04/23 00:53:02;;;;;;;;;21.50;15.00;;;;;12.45;67.46;-18824.56;4972558;28;11368;-70
2022/04/23 00:55:32;;;;;;;;;20.00;20.00;;;;;12.41;67.37;-18823.22;4970293;28;10465;-69
2022/04/23 00:57:59;;;;;;;;;19.25;17.50;;;;;12.31;67.58;-18820.50;4973174;28;10450;-69
2022/04/23 01:00:26;;;;;;;;;21.50;14.75;;;;;12.27;68.25;-18819.13;4972641;28;10654;-71
2022/04/23 01:02:55;;;;;;;;;22.75;21.00;;;;;12.27;68.38;-18819.13;4970280;28;10257;-70
2022/04/23 01:05:26;;;;;;;;;20.00;18.50;;;;;12.28;68.18;-18819.59;4973076;28;10670;-69
2022/04/23 01:07:53;;;;;;;;;22.75;16.00;;;;;12.36;68.36;-18821.84;4972242;28;10712;-72
2022/04/23 01:10:20;;;;;;;;;18.25;18.00;;;;;12.30;68.33;-18820.03;4972993;28;10360;-69
2022/04/23 01:12:47;;;;;;;;;15.50;14.25;;;;;12.35;68.35;-18821.41;4973038;28;10508;-72
2022/04/23 01:15:14;;;;;;;;;20.75;20.75;;;;;12.35;68.18;-18821.41;4973153;28;10418;-69
2022/04/23 01:17:42;;;;;;;;;20.25;20.25;;;;;12.30;68.53;-18820.19;4973002;28;11283;-71
2022/04/23 01:20:12;;;;;;;;;19.25;16.75;;;;;12.36;68.37;-18821.84;4972995;28;10583;-69
2022/04/23 01:22:40;;;;;;;;;18.50;16.25;;;;;12.30;68.40;-18820.03;4971545;28;10436;-70
2022/04/23 01:25:12;;;;;;;;;21.00;19.00;;;;;12.15;69.13;-18815.53;4972581;28;10457;-71
2022/04/23 01:27:40;;;;;;;;;17.50;15.00;;;;;12.13;69.76;-18815.06;4972431;28;10586;-69
2022/04/23 01:30:10;;;;;;;;;15.75;15.75;;;;;12.13;69.69;-18815.06;4987885;28;10539;-71
2022/04/23 01:32:36;;;;;;;;;18.00;17.00;;;;;12.20;69.30;-18817.19;4973053;28;10496;-69
2022/04/23 01:35:04;;;;;;;;;19.75;17.75;;;;;12.15;69.58;-18815.53;4984482;28;10522;-72
2022/04/23 01:37:31;;;;;;;;;17.00;15.50;;;;;12.09;69.97;-18813.72;4968522;28;11214;-69
2022/04/23 01:39:57;;;;;;;;;22.50;18.25;;;;;12.10;70.15;-18814.16;4970967;28;10546;-71
2022/04/23 01:42:24;;;;;;;;;16.00;16.00;;;;;12.06;70.36;-18812.94;4971902;28;10536;-69
2022/04/23 01:44:52;;;;;;;;;16.25;16.25;;;;;12.18;70.29;-18816.44;4972986;28;10510;-69
2022/04/23 01:47:19;;;;;;;;;21.25;17.00;;;;;12.16;70.25;-18815.81;4972632;28;10482;-69
2022/04/23 01:49:46;;;;;;;;;24.50;22.50;;;;;11.92;71.11;-18808.88;4973015;28;10746;-70
2022/04/23 01:52:13;;;;;;;;;21.75;18.75;;;;;11.95;71.09;-18809.78;4970917;28;11527;-68
2022/04/23 01:54:40;;;;;;;;;19.00;17.50;;;;;12.04;71.35;-18812.34;4969679;28;10833;-70
2022/04/23 01:57:07;;;;;;;;;22.75;20.75;;;;;12.01;71.27;-18811.44;4987016;28;10868;-69
2022/04/23 01:59:33;;;;;;;;;24.75;21.75;;;;;12.09;71.20;-18813.84;4954970;28;10837;-69
2022/04/23 02:02:00;;;;;;;;;25.50;21.25;;;;;12.07;70.73;-18813.09;4972119;28;10943;-69
2022/04/23 02:04:27;;;;;;;;;24.00;21.75;;;;;12.09;70.99;-18813.84;4952678;28;10783;-69
2022/04/23 02:06:54;;;;;;;;;28.50;26.50;;;;;11.91;71.53;-18808.44;4962698;28;10773;-71
2022/04/23 02:09:20;;;;;;;;;24.50;20.75;;;;;11.90;71.83;-18808.28;4970745;28;11934;-69
2022/04/23 02:11:47;;;;;;;;;34.50;33.00;;;;;11.83;71.52;-18806.16;4971979;28;10983;-69
2022/04/23 02:14:13;;;;;;;;;31.00;28.50;;;;;11.73;72.27;-18803.00;4958134;28;11025;-69
2022/04/23 02:16:40;;;;;;;;;25.75;24.75;;;;;11.83;71.77;-18806.03;4970278;28;11029;-69
2022/04/23 02:19:07;;;;;;;;;29.50;25.25;;;;;11.74;72.60;-18803.31;4971692;28;11022;-69
2022/04/23 02:21:33;;;;;;;;;25.50;24.00;;;;;11.72;72.91;-18802.84;4971432;28;11053;-68
2022/04/23 02:24:04;;;;;;;;;28.00;24.75;;;;;11.71;73.12;-18802.56;4971689;28;11940;-72
2022/04/23 02:26:30;;;;;;;;;34.50;29.75;;;;;11.69;72.95;-18802.09;4970352;28;11024;-72
2022/04/23 02:28:57;;;;;;;;;28.50;27.25;;;;;11.67;72.72;-18801.50;4971364;28;11134;-69
2022/04/23 02:31:24;;;;;;;;;32.75;31.00;;;;;11.66;72.83;-18801.19;4971546;28;11112;-69
2022/04/23 02:33:51;;;;;;;;;29.75;29.75;;;;;11.68;73.30;-18801.78;4969776;28;11174;-71
2022/04/23 02:36:17;;;;;;;;;37.00;33.25;;;;;11.75;72.99;-18803.75;4961944;28;11177;-69
2022/04/23 02:38:44;;;;;;;;;25.50;22.75;;;;;11.74;72.81;-18803.44;4965907;28;11108;-69
2022/04/23 02:41:11;;;;;;;;;24.25;23.50;;;;;11.69;73.63;-18802.09;4954214;28;11111;-69
2022/04/23 02:43:43;;;;;;;;;39.50;35.00;;;;;11.62;73.50;-18799.97;4971642;28;11000;-69
2022/04/23 02:46:12;;;;;;;;;31.00;29.50;;;;;11.57;74.00;-18798.31;4971264;28;11205;-71
2022/04/23 02:48:39;;;;;;;;;32.25;29.75;;;;;11.56;73.88;-18798.03;4986262;28;11183;-69
2022/04/23 02:51:05;;;;;;;;;39.50;32.75;;;;;11.52;74.63;-18796.97;4970981;28;11273;-70
2022/04/23 02:53:32;;;;;;;;;31.25;31.25;;;;;11.70;74.21;-18802.25;4971316;28;11410;-69
2022/04/23 02:56:02;;;;;;;;;36.75;33.50;;;;;11.60;74.21;-18799.22;4971629;28;10914;-70
2022/04/23 02:58:29;;;;;;;;;33.25;29.75;;;;;11.39;74.85;-18793.19;4961502;28;11106;-69
2022/04/23 03:00:55;;;;;;;;;32.50;29.25;;;;;11.49;74.73;-18795.91;4951911;28;11255;-71
2022/04/23 03:03:22;;;;;;;;;38.75;31.75;;;;;11.43;74.57;-18794.09;4971364;28;11035;-70
2022/04/23 03:05:53;;;;;;;;;34.00;32.75;;;;;11.53;74.71;-18797.28;4970817;28;11267;-69
2022/04/23 03:08:21;;;;;;;;;34.75;29.25;;;;;11.52;74.93;-18796.97;4969716;28;11396;-69
2022/04/23 03:10:48;;;;;;;;;29.25;27.25;;;;;11.42;75.20;-18793.97;4967784;28;11114;-69
2022/04/23 03:13:15;;;;;;;;;31.50;29.50;;;;;11.38;75.72;-18792.91;4986013;28;11176;-69
2022/04/23 03:15:44;;;;;;;;;36.50;33.50;;;;;11.37;75.95;-18792.44;4973811;28;11192;-71
2022/04/23 03:18:13;;;;;;;;;45.50;32.75;;;;;11.39;76.07;-18793.19;4969045;28;12311;-69
2022/04/23 03:20:41;;;;;;;;;34.75;31.00;;;;;11.36;75.92;-18792.13;4969987;28;11277;-68
2022/04/23 03:23:08;;;;;;;;;31.50;28.75;;;;;11.29;76.63;-18790.19;4969125;28;11674;-68
2022/04/23 03:25:34;;;;;;;;;29.50;27.75;;;;;11.38;76.22;-18792.91;4986013;28;11335;-68
2022/04/23 03:28:01;;;;;;;;;34.00;31.25;;;;;11.37;76.16;-18792.59;4971153;28;11401;-68
2022/04/23 03:30:29;;;;;;;;;34.00;31.50;;;;;11.43;75.88;-18794.25;4946590;28;11235;-71
2022/04/23 03:32:55;;;;;;;;;37.75;32.25;;;;;11.37;76.17;-18792.44;4967221;28;11254;-68
2022/04/23 03:35:22;;;;;;;;;30.50;27.50;;;;;11.39;76.40;-18793.19;4970867;28;11355;-68
2022/04/23 03:37:48;;;;;;;;;30.50;29.75;;;;;11.28;76.76;-18789.72;4966520;28;11106;-71
2022/04/23 03:40:22;;;;;;;;;40.75;37.25;;;;;11.25;76.38;-18788.97;4971189;28;11147;-68
2022/04/23 03:42:49;;;;;;;;;37.25;32.50;;;;;11.22;77.57;-18787.91;4971068;28;11553;-70
2022/04/23 03:45:18;;;;;;;;;39.00;36.00;;;;;11.12;77.15;-18785.06;4971087;28;11570;-69
2022/04/23 03:47:47;;;;;;;;;46.25;39.00;;;;;11.04;77.71;-18782.63;4970209;28;11279;-68
2022/04/23 03:50:15;;;;;;;;;29.75;29.00;;;;;10.94;78.26;-18779.78;4966671;28;11667;-68
2022/04/23 03:52:41;;;;;;;;;44.50;38.50;;;;;10.93;78.25;-18779.47;4957363;28;11356;-69
2022/04/23 03:55:09;;;;;;;;;33.25;33.25;;;;;11.02;78.53;-18782.03;4950729;29;11599;-69
2022/04/23 03:57:46;;;;;;;;;36.00;33.00;;;;;11.03;78.19;-18782.50;4965747;28;11190;-69
2022/04/23 04:00:15;;;;;;;;;32.25;26.25;;;;;11.12;78.10;-18784.91;4961071;28;11582;-72
2022/04/23 04:02:43;;;;;;;;;44.00;38.25;;;;;10.93;78.51;-18779.31;4952729;28;11216;-70
2022/04/23 04:05:11;;;;;;;;;43.75;36.00;;;;;10.89;78.50;-18778.13;4956933;28;11598;-69
2022/04/23 04:07:45;;;;;;;;;35.75;31.25;;;;;10.98;79.09;-18780.84;4969268;28;11344;-70
2022/04/23 04:10:14;;;;;;;;;44.75;37.00;;;;;10.84;78.79;-18776.75;4970797;28;11645;-69
2022/04/23 04:12:41;;;;;;;;;40.50;36.25;;;;;10.78;79.13;-18774.94;4972106;28;11370;-68
2022/04/23 04:15:15;;;;;;;;;41.75;35.25;;;;;10.89;78.99;-18778.25;4972887;28;11374;-71
2022/04/23 04:17:47;;;;;;;;;48.75;38.75;;;;;10.70;79.18;-18772.53;4973897;28;11556;-68
2022/04/23 04:20:15;;;;;;;;;44.00;39.25;;;;;10.66;79.85;-18771.34;4966798;28;11617;-70
2022/04/23 04:22:42;;;;;;;;;36.25;32.75;;;;;10.69;79.99;-18772.25;4971658;28;11685;-68
2022/04/23 04:25:09;;;;;;;;;38.50;32.50;;;;;10.61;80.59;-18769.97;4984426;28;12106;-70
2022/04/23 04:27:37;;;;;;;;;37.25;36.75;;;;;10.61;80.77;-18769.97;4972203;28;11269;-70
2022/04/23 04:30:06;;;;;;;;;39.00;34.50;;;;;10.61;80.88;-18769.81;4967427;28;11638;-68
2022/04/23 04:32:32;;;;;;;;;47.75;40.25;;;;;10.58;80.67;-18768.91;4967150;28;11597;-70
2022/04/23 04:34:59;;;;;;;;;41.75;38.00;;;;;10.58;80.64;-18769.06;4971383;28;11659;-69
2022/04/23 04:37:27;;;;;;;;;35.50;31.00;;;;;10.54;81.03;-18767.84;4964048;28;11565;-69
2022/04/23 04:39:54;;;;;;;;;45.00;38.75;;;;;10.47;81.66;-18765.91;4973796;28;11557;-68
2022/04/23 04:42:21;;;;;;;;;40.50;37.75;;;;;10.43;81.32;-18764.53;4973266;28;12269;-69
2022/04/23 04:44:49;;;;;;;;;41.25;36.25;;;;;10.53;80.79;-18767.56;4973922;28;11631;-69
2022/04/23 04:47:16;;;;;;;;;30.00;26.75;;;;;10.59;81.14;-18769.22;4974021;28;11351;-68
2022/04/23 04:49:43;;;;;;;;;51.25;39.75;;;;;10.55;80.64;-18768.00;4972832;28;11321;-69
2022/04/23 04:52:10;;;;;;;;;40.25;36.25;;;;;10.50;80.78;-18766.66;4973862;28;11582;-69
2022/04/23 04:54:36;;;;;;;;;35.50;30.00;;;;;10.45;81.11;-18765.28;4970469;28;11608;-71
2022/04/23 04:57:04;;;;;;;;;43.25;38.75;;;;;10.54;80.50;-18767.72;4971032;28;12255;-70
2022/04/23 04:59:31;;;;;;;;;37.25;34.75;;;;;10.54;81.21;-18767.84;4967980;28;11552;-70
2022/04/23 05:01:59;;;;;;;;;42.50;38.00;;;;;10.70;80.30;-18772.69;4973205;28;11640;-69
2022/04/23 05:04:26;;;;;;;;;29.00;26.25;;;;;10.73;80.44;-18773.59;4973926;28;11579;-69
2022/04/23 05:06:52;;;;;;;;;33.50;32.00;;;;;11.10;78.62;-18784.59;4973216;28;12046;-69
2022/04/23 05:09:19;;;;;;;;;29.25;27.50;;;;;11.13;78.26;-18785.34;4973393;28;11564;-71
2022/04/23 05:11:45;;;;;;;;;30.50;25.25;;;;;11.42;76.91;-18793.81;4963019;28;11240;-70
2022/04/23 05:14:12;;;;;;;;;37.00;31.00;;;;;12.02;74.13;-18811.91;4971640;28;11613;-70
2022/04/23 05:16:38;;;;;;;;;27.25;27.25;;;;;11.92;73.94;-18808.75;4972894;28;11577;-69
2022/04/23 05:19:05;;;;;;;;;34.75;33.50;;;;;11.74;74.92;-18803.31;4971230;28;11172;-69
2022/04/23 05:21:32;;;;;;;;;29.50;26.50;;;;;11.87;74.67;-18807.38;4970853;28;11635;-70
2022/04/23 05:23:58;;;;;;;;;37.50;32.50;;;;;11.47;74.80;-18795.31;4956131;28;11195;-69
2022/04/23 05:26:25;;;;;;;;;34.50;32.00;;;;;11.20;76.20;-18787.47;5040089;22;11537;-70
2022/04/23 05:28:51;;;;;;;;;32.00;31.00;;;;;11.33;76.13;-18791.38;5030377;28;11514;-70
2022/04/23 05:31:17;;;;;;;;;43.75;37.50;;;;;11.08;76.99;-18784.00;5026732;28;10982;-72
2022/04/23 05:33:44;;;;;;;;;37.50;31.75;;;;;10.99;78.14;-18781.13;5031482;28;11515;-69
2022/04/23 05:36:11;;;;;;;;;32.75;32.75;;;;;10.79;79.96;-18775.41;5040563;28;11295;-69
2022/04/23 05:38:37;;;;;;;;;36.25;33.00;;;;;10.78;79.89;-18775.09;5028306;28;11269;-70
2022/04/23 05:41:04;;;;;;;;;28.75;25.75;;;;;10.80;80.22;-18775.56;5031618;28;11519;-69
2022/04/23 05:43:30;;;;;;;;;36.50;32.50;;;;;10.82;79.96;-18776.16;5030695;28;11131;-71
2022/04/23 05:45:59;;;;;;;;;33.00;32.25;;;;;10.97;79.37;-18780.53;5031565;28;12388;-69
2022/04/23 05:48:27;;;;;;;;;27.25;25.25;;;;;11.01;78.89;-18781.75;5030782;28;11282;-72
2022/04/23 05:50:54;;;;;;;;;33.75;29.50;;;;;11.01;79.14;-18781.88;5045751;28;10882;-70
2022/04/23 05:53:20;;;;;;;;;39.00;29.75;;;;;10.96;79.02;-18780.22;5031114;28;11211;-70
2022/04/23 05:55:47;;;;;;;;;29.00;28.25;;;;;11.15;77.61;-18785.97;5013036;28;11070;-70
2022/04/23 05:58:13;;;;;;;;;27.25;27.25;;;;;11.16;77.74;-18786.13;5014539;28;10987;-69
2022/04/23 06:00:40;;;;;;;;;42.00;34.50;;;;;11.24;76.56;-18788.69;5027597;28;10953;-69
2022/04/23 06:03:06;;;;;;;;;33.25;28.50;;;;;11.50;75.37;-18796.38;5031224;28;11209;-71
2022/04/23 06:05:33;;;;;;;;;35.50;33.75;;;;;11.69;74.16;-18802.09;5028129;28;11089;-69
2022/04/23 06:08:00;;;;;;;;;27.75;26.00;;;;;11.99;73.55;-18810.84;5025482;28;11934;-71
2022/04/23 06:10:27;;;;;;;;;33.00;32.00;;;;;12.01;73.65;-18811.44;5017250;28;11789;-69
2022/04/23 06:12:53;;;;;;;;;29.25;27.00;;;;;11.93;72.59;-18809.03;5025721;28;11510;-69
2022/04/23 06:15:20;;;;;;;;;29.00;23.00;;;;;12.25;71.05;-18818.69;5031072;28;11185;-70
2022/04/23 06:17:46;;;;;;;;;29.50;27.00;;;;;12.10;71.62;-18814.16;5028517;28;10641;-70
2022/04/23 06:20:13;;;;;;;;;30.00;27.75;;;;;12.30;71.93;-18820.03;5031360;28;10910;-69
2022/04/23 06:22:39;;;;;;;;;32.25;25.00;;;;;12.46;70.11;-18824.88;5030715;28;10998;-69
2022/04/23 06:25:06;;;;;;;;;40.00;31.50;;;;;12.38;69.81;-18822.44;5028865;28;11009;-70
2022/04/23 06:27:33;;;;;;;;;37.50;31.25;;;;;12.47;69.94;-18825.16;5025438;28;11099;-70
2022/04/23 06:30:00;;;;;;;;;33.50;26.00;;;;;12.28;70.19;-18819.59;5028505;28;11309;-70
2022/04/23 06:32:26;;;;;;;;;32.00;27.25;;;;;12.56;69.43;-18827.88;5030512;28;11068;-69
2022/04/23 06:34:53;;;;;;;;;26.50;26.50;;;;;12.89;69.34;-18837.53;5028839;28;11495;-70
2022/04/23 06:37:19;;;;;;;;;33.75;24.25;;;;;13.05;67.12;-18842.34;5030461;28;10743;-70
2022/04/23 06:39:46;;;;;;;;;30.50;29.00;;;;;13.02;67.94;-18841.44;5030585;28;11579;-70
2022/04/23 06:42:13;;;;;;;;;27.75;23.00;;;;;12.99;66.79;-18840.53;5030783;28;10899;-70
2022/04/23 06:44:39;;;;;;;;;36.25;28.00;;;;;12.89;67.13;-18837.53;5029131;28;10591;-71
2022/04/23 06:47:06;;;;;;;;;30.75;28.75;;;;;12.68;68.35;-18831.19;5030207;28;10923;-70
2022/04/23 06:49:33;;;;;;;;;33.75;28.25;;;;;12.75;68.76;-18833.31;5029484;28;11664;-70
2022/04/23 06:52:00;;;;;;;;;28.75;27.25;;;;;12.96;66.88;-18839.47;5028527;28;11871;-70
2022/04/23 06:54:26;;;;;;;;;26.00;25.50;;;;;12.77;67.10;-18834.06;5030419;28;10744;-73
2022/04/23 06:56:53;;;;;;;;;33.75;29.25;;;;;12.55;68.30;-18827.44;5029781;28;10739;-69
2022/04/23 06:59:19;;;;;;;;;31.50;30.00;;;;;12.83;67.78;-18835.72;5030146;28;11101;-69
2022/04/23 07:01:46;;;;;;;;;29.50;27.25;;;;;13.03;66.96;-18841.75;5030202;28;10902;-70
2022/04/23 07:04:12;;;;;;;;;30.25;28.75;;;;;13.00;67.01;-18840.69;5030043;28;10875;-71
2022/04/23 07:06:40;;;;;;;;;30.75;28.25;;;;;12.85;67.01;-18836.31;5020743;28;10927;-70
2022/04/23 07:09:06;;;;;;;;;29.50;28.75;;;;;12.68;68.51;-18831.34;5009759;28;10960;-73
2022/04/23 07:11:33;;;;;;;;;25.50;22.50;;;;;12.59;68.46;-18828.63;5025331;28;10578;-71
2022/04/23 07:14:00;;;;;;;;;25.25;24.00;;;;;12.76;67.53;-18833.75;5031217;28;10769;-70
2022/04/23 07:16:26;;;;;;;;;36.50;34.75;;;;;12.54;68.11;-18827.13;5030560;28;11528;-70
2022/04/23 07:18:53;;;;;;;;;27.25;27.25;;;;;13.04;67.22;-18841.88;5030363;28;10902;-70
2022/04/23 07:21:22;;;;;;;;;26.50;25.75;;;;;13.37;65.94;-18851.69;5024131;28;10758;-69
2022/04/23 07:24:05;;;;;;;;;24.25;23.00;;;;;13.35;65.91;-18851.09;5010317;28;10596;-73
2022/04/23 07:26:34;;;;;;;;;34.00;33.00;;;;;13.44;65.11;-18853.94;5021389;28;10565;-70
2022/04/23 07:29:06;;;;;;;;;29.25;24.25;;;;;13.11;66.04;-18844.00;5030850;28;10824;-70
2022/04/23 07:31:33;;;;;;;;;27.50;25.00;;;;;13.32;65.76;-18850.19;5028795;28;10475;-69
2022/04/23 07:39:38;;;;;;;;;30.50;28.00;;;;;13.55;64.98;-18857.09;5028548;28;10659;-70
2022/04/23 07:42:08;;;;;;;;;27.25;23.25;;;;;13.66;64.36;-18860.44;5017953;28;10944;-73
2022/04/23 07:44:34;;;;;;;;;30.25;25.75;;;;;13.78;64.05;-18863.88;5025437;28;10586;-71
2022/04/23 07:47:01;;;;;;;;;29.25;26.50;;;;;13.80;62.84;-18864.63;5030930;28;10498;-71
2022/04/23 07:49:28;;;;;;;;;27.50;25.75;;;;;13.54;63.89;-18856.97;5031813;28;11407;-72
2022/04/23 07:51:54;;;;;;;;;32.50;28.75;;;;;13.50;63.54;-18855.75;5033100;28;10717;-71
2022/04/23 07:54:21;;;;;;;;;30.25;30.25;;;;;13.76;63.24;-18863.44;5033990;28;10625;-71
2022/04/23 07:56:48;;;;;;;;;35.00;32.50;;;;;13.78;63.60;-18864.03;5031292;28;10887;-74
2022/04/23 07:59:15;;;;;;;;;26.50;24.00;;;;;13.79;63.31;-18864.19;5034156;28;10985;-69
2022/04/23 08:01:41;;;;;;;;;32.75;29.00;;;;;14.01;62.70;-18870.81;5037626;28;10568;-69
2022/04/23 08:04:08;;;;;;;;;26.25;21.50;;;;;14.16;61.88;-18875.34;5036976;28;10690;-70
2022/04/23 08:06:35;;;;;;;;;28.25;26.25;;;;;14.13;62.28;-18874.28;5036506;28;10511;-73
2022/04/23 08:09:02;;;;;;;;;30.50;28.50;;;;;14.20;61.80;-18876.38;5038009;28;10338;-70
2022/04/23 08:11:29;;;;;;;;;29.75;27.50;;;;;14.30;61.26;-18879.25;5048485;28;10663;-71
2022/04/23 08:13:56;;;;;;;;;32.00;29.75;;;;;14.35;60.56;-18880.75;5038029;28;11210;-68
2022/04/23 08:16:26;;;;;;;;;28.50;26.00;;;;;14.62;60.04;-18888.88;5030061;28;10577;-70
2022/04/23 08:18:54;;;;;;;;;31.00;26.00;;;;;14.77;58.03;-18893.25;5032673;28;10420;-70
2022/04/23 08:21:21;;;;;;;;;36.25;32.50;;;;;14.49;59.45;-18884.81;5037212;28;10444;-70
2022/04/23 08:23:47;;;;;;;;;33.75;24.75;;;;;14.53;59.72;-18886.19;5037364;28;10764;-70
2022/04/23 08:26:14;;;;;;;;;31.00;26.75;;;;;14.51;59.32;-18885.41;5029228;28;10447;-71
2022/04/23 08:31:25;;;;;;;;;30.00;29.00;;;;;14.62;58.53;-18888.72;5037227;28;10423;-72
2022/04/23 08:33:58;;;;;;;;;30.75;29.00;;;;;14.52;59.20;-18885.88;5038075;28;10409;-71
2022/04/23 08:36:29;;;;;;;;;25.50;24.00;;;;;14.76;58.23;-18893.09;5030987;28;10576;-70
2022/04/23 08:38:58;;;;;;;;;29.25;26.50;;;;;14.94;57.87;-18898.22;5026546;28;10396;-70
2022/04/23 08:41:31;;;;;;;;;27.75;23.75;;;;;15.27;57.40;-18908.00;5036613;28;10548;-70
2022/04/23 08:44:06;;;;;;;;;31.75;27.50;;;;;14.94;57.28;-18898.22;5036314;28;10228;-71
2022/04/23 08:46:37;;;;;;;;;28.00;27.00;;;;;15.19;56.80;-18905.75;5035139;28;10372;-71
2022/04/23 08:49:16;;;;;;;;;30.25;25.25;;;;;15.34;56.11;-18910.25;5031475;28;10432;-71
2022/04/23 08:51:50;;;;;;;;;34.50;28.25;;;;;15.44;56.10;-18912.97;5031377;28;10229;-71
2022/04/23 08:54:17;;;;;;;;;33.00;29.25;;;;;15.50;55.03;-18914.78;5052023;28;10204;-70
2022/04/23 08:56:45;;;;;;;;;35.00;31.00;;;;;15.34;55.58;-18910.25;5030434;28;10199;-70
2022/04/23 08:59:14;;;;;;;;;24.25;20.75;;;;;15.82;55.72;-18924.25;5035989;28;10374;-72
2022/04/23 09:01:47;;;;;;;;;30.00;28.50;;;;;15.53;54.18;-18915.81;5048367;28;10011;-72
2022/04/23 09:04:13;;;;;;;;;27.75;22.75;;;;;15.21;55.93;-18906.19;5033750;28;10355;-72
2022/04/23 09:06:43;;;;;;;;;43.75;36.25;;;;;15.18;55.10;-18905.44;5047379;28;10137;-73
2022/04/23 09:09:13;;;;;;;;;26.00;24.00;;;;;15.29;55.07;-18908.75;5032432;28;10460;-71
2022/04/23 09:11:41;;;;;;;;;31.50;29.25;;;;;15.19;55.62;-18905.75;5036746;28;10349;-71
2022/04/23 09:14:20;;;;;;;;;25.00;22.50;;;;;15.45;55.61;-18913.41;5032787;28;10458;-73
2022/04/23 09:25:13;;;;;;;;;32.25;28.25;;;;;16.43;52.73;-18942.28;5031384;28;9875;-71
2022/04/23 09:27:42;;;;;;;;;30.25;25.00;;;;;16.52;51.66;-18945.16;5028692;28;10294;-72
2022/04/23 09:30:13;;;;;;;;;28.25;24.75;;;;;16.45;51.03;-18942.91;5034823;28;9986;-72
2022/04/23 09:33:00;;;;;;;;;23.75;21.50;;;;;16.55;50.61;-18946.06;5032627;28;10754;-71
2022/04/23 09:35:27;;;;;;;;;29.50;29.50;;;;;16.23;51.63;-18936.59;5033329;28;9986;-74
2022/04/23 09:38:11;;;;;;;;;27.25;24.00;;;;;16.40;50.61;-18941.41;5013598;28;10297;-71
2022/04/23 09:40:38;;;;;;;;;29.50;25.00;;;;;16.58;49.55;-18946.81;5033114;28;10111;-72
2022/04/23 09:43:06;;;;;;;;;31.75;28.00;;;;;16.47;50.33;-18943.66;5030486;28;9922;-71
2022/04/23 09:45:34;;;;;;;;;32.25;28.00;;;;;16.24;50.71;-18936.88;5031423;28;10186;-71
2022/04/23 09:48:03;;;;;;;;;28.25;24.50;;;;;16.60;49.60;-18947.41;5022131;28;9965;-71
2022/04/23 09:50:36;;;;;;;;;31.75;29.00;;;;;16.48;49.88;-18943.94;5031508;28;9850;-71
2022/04/23 09:53:09;;;;;;;;;28.50;26.75;;;;;16.57;50.01;-18946.66;5031015;28;10735;-71
2022/04/23 09:55:36;;;;;;;;;25.75;23.25;;;;;16.81;49.42;-18953.56;5031852;28;10143;-74
2022/04/23 09:58:06;;;;;;;;;32.25;28.50;;;;;16.86;49.08;-18955.22;5034704;28;10092;-72
2022/04/23 10:00:41;;;;;;;;;27.25;22.75;;;;;17.14;49.01;-18963.50;5051388;28;10021;-72
2022/04/23 10:03:10;;;;;;;;;29.00;28.25;;;;;17.15;48.63;-18963.81;5029024;28;10105;-72
2022/04/23 10:05:40;;;;;;;;;29.25;26.50;;;;;17.36;48.16;-18969.97;5045844;28;10099;-72
2022/04/23 10:08:11;;;;;;;;;24.50;22.00;;;;;17.34;47.39;-18969.34;5034171;28;9944;-72
2022/04/23 10:10:44;;;;;;;;;29.75;23.75;;;;;17.64;46.84;-18978.22;5034643;28;10490;-72
2022/04/23 10:13:15;;;;;;;;;29.75;25.75;;;;;17.64;46.48;-18978.06;5016376;28;9852;-70
2022/04/23 10:15:46;;;;;;;;;29.75;29.00;;;;;17.67;46.48;-18978.97;5030950;28;10017;-71
2022/04/23 10:18:15;;;;;;;;;26.25;23.25;;;;;17.79;46.22;-18982.59;5032491;28;10875;-72
2022/04/23 10:20:52;;;;;;;;;31.75;31.25;;;;;17.75;45.92;-18981.38;5046720;28;9783;-70
2022/04/23 10:23:42;;;;;;;;;25.00;23.50;;;;;17.78;45.66;-18982.28;5034500;28;9921;-70
2022/04/23 10:26:34;;;;;;;;;35.00;31.00;;;;;17.65;46.16;-18978.53;5033212;28;9711;-69
2022/04/23 10:29:07;;;;;;;;;29.50;23.25;;;;;17.98;44.83;-18988.16;5034287;28;9980;-72
2022/04/23 10:31:35;;;;;;;;;27.00;25.00;;;;;17.71;46.13;-18980.19;5021748;28;9758;-70
2022/04/23 10:34:02;;;;;;;;;29.50;28.75;;;;;17.91;45.46;-18986.19;5035241;28;9474;-70
2022/04/23 10:36:29;;;;;;;;;32.25;29.50;;;;;17.53;45.94;-18974.91;5027998;28;9908;-70
2022/04/23 10:39:18;;;;;;;;;31.50;26.25;;;;;17.77;46.84;-18981.97;5012798;28;10397;-69
2022/04/23 10:41:46;;;;;;;;;29.75;25.00;;;;;18.33;45.37;-18998.66;5027241;28;9460;-71
2022/04/23 10:44:22;;;;;;;;;28.75;23.75;;;;;18.38;44.86;-19000.00;5028643;28;9792;-69
2022/04/23 10:46:51;;;;;;;;;28.25;26.00;;;;;17.92;46.24;-18986.50;5046522;28;9630;-69
2022/04/23 10:49:20;;;;;;;;;33.00;27.50;;;;;18.12;45.48;-18992.34;5031348;28;9763;-70
2022/04/23 10:51:57;;;;;;;;;29.75;27.25;;;;;18.13;44.69;-18992.66;5046860;28;9698;-70
2022/04/23 10:54:42;;;;;;;;;31.00;28.00;;;;;18.03;45.00;-18989.66;5031663;28;9760;-70
2022/04/23 10:57:13;;;;;;;;;27.50;24.50;;;;;18.21;44.71;-18994.91;5032150;28;9635;-73
2022/04/23 10:59:48;;;;;;;;;24.25;22.25;;;;;18.24;44.60;-18995.94;5031876;28;9595;-70
2022/04/23 11:02:20;;;;;;;;;31.00;26.00;;;;;18.14;44.61;-18992.94;5027023;28;9540;-70
2022/04/23 11:14:04;;;;;;;;;31.75;27.50;;;;;18.47;44.20;-19002.72;5021183;28;9689;-69
2022/04/23 11:16:31;;;;;;;;;22.50;22.00;;;;;18.56;44.24;-19005.41;5031331;28;9765;-70
2022/04/23 11:18:59;;;;;;;;;32.25;26.50;;;;;18.58;43.29;-19005.88;5029878;28;9451;-71
2022/04/23 11:21:29;;;;;;;;;24.00;21.50;;;;;18.70;43.04;-19009.63;5029635;28;9677;-74
2022/04/23 11:23:57;;;;;;;;;30.00;30.00;;;;;18.99;42.23;-19018.19;5031031;28;10179;-71
2022/04/23 11:26:46;;;;;;;;;30.00;25.75;;;;;18.39;42.69;-19000.31;5022834;28;9737;-70
2022/04/23 11:29:14;;;;;;;;;28.00;27.00;;;;;18.17;44.03;-18993.69;5031157;28;9801;-72
2022/04/23 11:31:49;;;;;;;;;25.75;24.00;;;;;18.05;44.51;-18990.25;5030937;28;9474;-72
2022/04/23 11:34:17;;;;;;;;;29.50;27.25;;;;;17.98;43.71;-18988.28;5031652;28;9524;-73
2022/04/23 11:36:43;;;;;;;;;29.00;25.75;;;;;18.04;44.11;-18990.09;5022369;28;9602;-72
2022/04/23 11:39:13;;;;;;;;;28.00;28.00;;;;;17.95;44.31;-18987.41;5016911;28;9566;-73
2022/04/23 11:41:48;;;;;;;;;29.00;28.00;;;;;17.81;45.65;-18983.34;5030988;28;9877;-73